createdAt,value
2018-02-10T00:00:18.221Z,99263
2018-02-10T00:02:48.781Z,99262
2018-02-10T00:05:16.166Z,99259
2018-02-10T00:07:43.546Z,99255
2018-02-10T00:10:10.929Z,99252
2018-02-10T00:12:38.313Z,99243
2018-02-10T00:15:05.695Z,99240
2018-02-10T00:17:33.077Z,99241
2018-02-10T00:20:00.454Z,99232
2018-02-10T00:22:36.060Z,99232
2018-02-10T00:25:03.442Z,99231
2018-02-10T00:27:30.861Z,99233
2018-02-10T00:29:58.244Z,99234
2018-02-10T00:32:25.621Z,99234
2018-02-10T00:34:53.046Z,99226
2018-02-10T00:37:20.425Z,99224
2018-02-10T00:39:47.800Z,99221
2018-02-10T00:42:15.250Z,99222
2018-02-10T00:44:42.701Z,99222
2018-02-10T00:47:10.077Z,99219
2018-02-10T00:49:37.481Z,99219
2018-02-10T00:52:04.900Z,99223
2018-02-10T00:54:32.277Z,99232
2018-02-10T00:56:59.653Z,99231
2018-02-10T00:59:27.065Z,99235
2018-02-10T01:01:54.442Z,99237
2018-02-10T01:04:21.830Z,99239
2018-02-10T01:06:49.204Z,99234
2018-02-10T01:09:16.586Z,99234
2018-02-10T01:11:44.006Z,99233
2018-02-10T01:14:11.389Z,99227
2018-02-10T01:16:38.765Z,99223
2018-02-10T01:19:06.185Z,99220
2018-02-10T01:21:33.565Z,99212
2018-02-10T01:24:02.437Z,99214
2018-02-10T01:26:29.828Z,99215
2018-02-10T01:28:57.205Z,99222
2018-02-10T01:31:24.589Z,99218
2018-02-10T01:33:52.006Z,99208
2018-02-10T01:36:19.419Z,99204
2018-02-10T01:38:46.899Z,99196
2018-02-10T01:41:14.321Z,99199
2018-02-10T01:43:41.697Z,99212
2018-02-10T01:46:09.072Z,99211
2018-02-10T01:48:36.485Z,99210
2018-02-10T01:51:03.865Z,99217
2018-02-10T01:53:31.241Z,99219
2018-02-10T01:55:58.632Z,99225
2018-02-10T01:58:26.051Z,99221
2018-02-10T02:00:53.452Z,99229
2018-02-10T02:03:21.172Z,99233
2018-02-10T02:05:48.586Z,99223
2018-02-10T02:08:16.015Z,99218
2018-02-10T02:10:43.398Z,99217
2018-02-10T02:13:10.818Z,99222
2018-02-10T02:15:38.194Z,99225
2018-02-10T02:18:05.569Z,99226
2018-02-10T02:20:32.997Z,99227
2018-02-10T02:23:00.384Z,99228
2018-02-10T02:25:27.902Z,99230
2018-02-10T02:27:55.319Z,99243
2018-02-10T02:30:22.694Z,99251
2018-02-10T02:32:50.070Z,99252
2018-02-10T02:35:17.445Z,99254
2018-02-10T02:37:44.862Z,99264
2018-02-10T02:40:12.241Z,99272
2018-02-10T02:42:39.618Z,99263
2018-02-10T02:45:07.018Z,99256
2018-02-10T02:47:34.413Z,99246
2018-02-10T02:50:01.797Z,99247
2018-02-10T02:52:29.221Z,99243
2018-02-10T02:54:56.597Z,99239
2018-02-10T02:57:23.978Z,99237
2018-02-10T02:59:51.390Z,99235
2018-02-10T03:02:18.843Z,99227
2018-02-10T03:04:46.217Z,99227
2018-02-10T03:07:13.597Z,99225
2018-02-10T03:09:40.989Z,99233
2018-02-10T03:12:08.485Z,99232
2018-02-10T03:14:35.865Z,99225
2018-02-10T03:17:04.072Z,99223
2018-02-10T03:19:31.493Z,99223
2018-02-10T03:21:58.870Z,99223
2018-02-10T03:24:26.249Z,99229
2018-02-10T03:26:53.681Z,99234
2018-02-10T03:29:21.097Z,99233
2018-02-10T03:31:48.469Z,99222
2018-02-10T03:34:15.845Z,99224
2018-02-10T03:36:43.273Z,99225
2018-02-10T03:39:10.647Z,99216
2018-02-10T03:41:38.029Z,99223
2018-02-10T03:44:05.449Z,99217
2018-02-10T03:46:32.826Z,99226
2018-02-10T03:49:00.210Z,99235
2018-02-10T03:51:27.598Z,99237
2018-02-10T03:53:55.014Z,99239
2018-02-10T03:56:22.388Z,99245
2018-02-10T03:58:49.834Z,99230
2018-02-10T04:01:17.220Z,99226
2018-02-10T04:03:44.637Z,99222
2018-02-10T04:06:12.013Z,99216
2018-02-10T04:08:39.389Z,99208
2018-02-10T04:11:06.820Z,99213
2018-02-10T04:13:34.197Z,99211
2018-02-10T04:16:01.573Z,99209
2018-02-10T04:18:28.960Z,99208
2018-02-10T04:20:56.337Z,99209
2018-02-10T04:23:23.749Z,99207
2018-02-10T04:25:51.120Z,99207
2018-02-10T04:28:18.538Z,99207
2018-02-10T04:30:45.917Z,99209
2018-02-10T04:33:13.305Z,99212
2018-02-10T04:35:40.689Z,99210
2018-02-10T04:38:08.107Z,99217
2018-02-10T04:40:35.485Z,99211
2018-02-10T04:43:02.861Z,99217
2018-02-10T04:45:30.279Z,99216
2018-02-10T04:47:57.652Z,99210
2018-02-10T04:50:25.027Z,99212
2018-02-10T04:52:52.441Z,99213
2018-02-10T04:55:19.867Z,99217
2018-02-10T04:57:47.308Z,99212
2018-02-10T05:00:14.725Z,99209
2018-02-10T05:02:42.102Z,99214
2018-02-10T05:05:09.481Z,99225
2018-02-10T05:07:36.896Z,99224
2018-02-10T05:10:04.276Z,99226
2018-02-10T05:12:31.654Z,99226
2018-02-10T05:14:59.070Z,99227
2018-02-10T05:17:26.446Z,99227
2018-02-10T05:19:53.822Z,99223
2018-02-10T05:22:21.212Z,99220
2018-02-10T05:24:48.585Z,99217
2018-02-10T05:27:15.997Z,99219
2018-02-10T05:29:43.401Z,99219
2018-02-10T05:32:10.772Z,99222
2018-02-10T05:34:38.152Z,99227
2018-02-10T05:37:05.558Z,99223
2018-02-10T05:39:32.994Z,99224
2018-02-10T05:42:00.386Z,99216
2018-02-10T05:44:27.790Z,99221
2018-02-10T05:46:55.173Z,99218
2018-02-10T05:49:22.549Z,99216
2018-02-10T05:51:49.961Z,99214
2018-02-10T05:54:17.348Z,99212
2018-02-10T05:56:44.721Z,99220
2018-02-10T05:59:12.100Z,99217
2018-02-10T06:01:39.478Z,99210
2018-02-10T06:04:06.893Z,99218
2018-02-10T06:06:34.273Z,99217
2018-02-10T06:09:01.657Z,99232
2018-02-10T06:11:29.077Z,99222
2018-02-10T06:13:56.455Z,99226
2018-02-10T06:16:23.829Z,99224
2018-02-10T06:18:51.244Z,99233
2018-02-10T06:21:18.633Z,99226
2018-02-10T06:23:46.009Z,99228
2018-02-10T06:26:13.417Z,99224
2018-02-10T06:28:40.797Z,99220
2018-02-10T06:31:08.173Z,99221
2018-02-10T06:33:35.549Z,99220
2018-02-10T06:36:02.926Z,99223
2018-02-10T06:38:30.337Z,99223
2018-02-10T06:40:57.713Z,99222
2018-02-10T06:43:25.086Z,99221
2018-02-10T06:45:52.510Z,99226
2018-02-10T06:48:19.889Z,99223
2018-02-10T06:50:47.272Z,99223
2018-02-10T06:53:14.669Z,99218
2018-02-10T06:55:42.049Z,99217
2018-02-10T06:58:09.474Z,99219
2018-02-10T07:00:36.857Z,99219
2018-02-10T07:03:04.248Z,99217
2018-02-10T07:05:31.692Z,99224
2018-02-10T07:07:59.065Z,99232
2018-02-10T07:10:26.453Z,99230
2018-02-10T07:12:53.865Z,99227
2018-02-10T07:15:21.413Z,99222
2018-02-10T07:17:48.801Z,99212
2018-02-10T07:20:16.216Z,99210
2018-02-10T07:22:43.715Z,99201
2018-02-10T07:25:11.093Z,99202
2018-02-10T07:27:38.510Z,99203
2018-02-10T07:30:06.640Z,99206
2018-02-10T07:32:34.085Z,99203
2018-02-10T07:35:01.528Z,99203
2018-02-10T07:37:28.909Z,99199
2018-02-10T07:39:56.359Z,99192
2018-02-10T07:42:23.793Z,99191
2018-02-10T07:44:51.165Z,99194
2018-02-10T07:47:18.689Z,99193
2018-02-10T07:49:46.140Z,99190
2018-02-10T07:52:13.530Z,99192
2018-02-10T07:54:40.918Z,99186
2018-02-10T07:57:08.412Z,99168
2018-02-10T07:59:35.789Z,99167
2018-02-10T08:02:03.174Z,99165
2018-02-10T08:04:30.592Z,99157
2018-02-10T08:06:57.977Z,99159
2018-02-10T08:09:25.402Z,99164
2018-02-10T08:11:52.782Z,99164
2018-02-10T08:14:20.185Z,99160
2018-02-10T08:16:47.608Z,99159
2018-02-10T08:19:15.037Z,99154
2018-02-10T08:21:42.421Z,99152
2018-02-10T08:24:09.798Z,99154
2018-02-10T08:26:37.179Z,99149
2018-02-10T08:29:04.593Z,99145
2018-02-10T08:31:32.007Z,99143
2018-02-10T08:33:59.401Z,99149
2018-02-10T08:36:26.829Z,99153
2018-02-10T08:38:54.241Z,99147
2018-02-10T08:41:21.638Z,99144
2018-02-10T08:43:49.118Z,99140
2018-02-10T08:46:16.492Z,99138
2018-02-10T08:48:43.869Z,99140
2018-02-10T08:51:11.472Z,99140
2018-02-10T08:53:38.960Z,99139
2018-02-10T08:56:06.376Z,99140
2018-02-10T08:58:33.760Z,99138
2018-02-10T09:01:01.159Z,99135
2018-02-10T09:03:28.616Z,99132
2018-02-10T09:05:55.996Z,99126
2018-02-10T09:08:23.429Z,99120
2018-02-10T09:10:50.818Z,99121
2018-02-10T09:13:18.201Z,99113
2018-02-10T09:15:45.581Z,99117
2018-02-10T09:18:12.977Z,99106
2018-02-10T09:20:40.398Z,99103
2018-02-10T09:23:07.776Z,99097
2018-02-10T09:25:35.336Z,99089
2018-02-10T09:28:02.773Z,99083
2018-02-10T09:30:30.153Z,99085
2018-02-10T09:32:57.536Z,99074
2018-02-10T09:35:24.966Z,99071
2018-02-10T09:37:52.350Z,99065
2018-02-10T09:40:19.736Z,99055
2018-02-10T09:42:47.165Z,99058
2018-02-10T09:45:14.583Z,99056
2018-02-10T09:47:42.013Z,99056
2018-02-10T09:50:09.430Z,99053
2018-02-10T09:52:36.814Z,99048
2018-02-10T09:55:04.194Z,99049
2018-02-10T09:57:31.619Z,99047
2018-02-10T09:59:59.001Z,99049
2018-02-10T10:02:26.391Z,99047
2018-02-10T10:04:53.773Z,99043
2018-02-10T10:07:21.209Z,99038
2018-02-10T10:09:48.593Z,99036
2018-02-10T10:12:15.977Z,99029
2018-02-10T10:14:43.357Z,99026
2018-02-10T10:17:10.734Z,99021
2018-02-10T10:19:38.173Z,99016
2018-02-10T10:22:05.554Z,99019
2018-02-10T10:24:32.939Z,99012
2018-02-10T10:27:00.512Z,99015
2018-02-10T10:29:27.893Z,99008
2018-02-10T10:31:55.277Z,99003
2018-02-10T10:34:22.698Z,98995
2018-02-10T10:36:50.297Z,98990
2018-02-10T10:39:17.673Z,98988
2018-02-10T10:41:45.109Z,98977
2018-02-10T10:44:12.490Z,98977
2018-02-10T10:46:39.869Z,98974
2018-02-10T10:49:07.290Z,98973
2018-02-10T10:51:34.700Z,98970
2018-02-10T10:54:02.229Z,98964
2018-02-10T10:56:29.645Z,98968
2018-02-10T10:58:57.021Z,98964
2018-02-10T11:01:24.401Z,98961
2018-02-10T11:03:51.834Z,98949
2018-02-10T11:06:19.214Z,98950
2018-02-10T11:08:46.589Z,98942
2018-02-10T11:11:14.401Z,98939
2018-02-10T11:13:41.789Z,98939
2018-02-10T11:16:09.192Z,98931
2018-02-10T11:18:36.581Z,98935
2018-02-10T11:21:03.957Z,98937
2018-02-10T11:23:31.333Z,98940
2018-02-10T11:25:58.705Z,98930
2018-02-10T11:28:26.346Z,98930
2018-02-10T11:30:53.744Z,98931
2018-02-10T11:33:21.139Z,98923
2018-02-10T11:35:48.553Z,98921
2018-02-10T11:38:15.929Z,98919
2018-02-10T11:40:43.301Z,98919
2018-02-10T11:43:10.718Z,98921
2018-02-10T11:45:38.097Z,98918
2018-02-10T11:48:05.478Z,98920
2018-02-10T11:50:32.889Z,98910
2018-02-10T11:53:00.289Z,98916
2018-02-10T11:55:27.666Z,98912
2018-02-10T11:57:55.098Z,98905
2018-02-10T12:00:22.505Z,98906
2018-02-10T12:02:49.893Z,98907
2018-02-10T12:05:17.317Z,98900
2018-02-10T12:07:44.703Z,98904
2018-02-10T12:10:12.079Z,98901
2018-02-10T12:12:39.497Z,98898
2018-02-10T12:15:06.877Z,98888
2018-02-10T12:17:34.261Z,98896
2018-02-10T12:20:01.742Z,98893
2018-02-10T12:22:29.168Z,98888
2018-02-10T12:24:56.572Z,98882
2018-02-10T12:27:24.001Z,98882
2018-02-10T12:29:51.381Z,98878
2018-02-10T12:32:18.773Z,98871
2018-02-10T12:34:46.189Z,98867
2018-02-10T12:37:13.570Z,98866
2018-02-10T12:39:40.945Z,98867
2018-02-10T12:42:08.369Z,98862
2018-02-10T12:44:35.749Z,98865
2018-02-10T12:47:03.130Z,98865
2018-02-10T12:49:30.577Z,98853
2018-02-10T12:51:57.953Z,98859
2018-02-10T12:54:25.355Z,98854
2018-02-10T12:56:52.781Z,98854
2018-02-10T12:59:20.168Z,98857
2018-02-10T13:01:47.558Z,98856
2018-02-10T13:04:14.938Z,98851
2018-02-10T13:06:42.322Z,98853
2018-02-10T13:09:09.831Z,98853
2018-02-10T13:11:37.201Z,98854
2018-02-10T13:14:04.589Z,98856
2018-02-10T13:16:32.024Z,98849
2018-02-10T13:18:59.402Z,98852
2018-02-10T13:21:26.810Z,98854
2018-02-10T13:23:54.190Z,98843
2018-02-10T13:26:21.650Z,98843
2018-02-10T13:28:49.881Z,98835
2018-02-10T13:31:17.277Z,98831
2018-02-10T13:33:44.713Z,98825
2018-02-10T13:36:12.121Z,98822
2018-02-10T13:38:39.537Z,98824
2018-02-10T13:41:06.929Z,98830
2018-02-10T13:43:34.313Z,98829
2018-02-10T13:46:01.693Z,98833
2018-02-10T13:48:37.974Z,98833
2018-02-10T13:51:05.389Z,98838
2018-02-10T13:53:32.779Z,98837
2018-02-10T13:56:00.202Z,98831
2018-02-10T13:58:27.629Z,98829
2018-02-10T14:00:55.025Z,98825
2018-02-10T14:03:22.415Z,98823
2018-02-10T14:05:49.989Z,98817
2018-02-10T14:08:17.404Z,98808
2018-02-10T14:10:44.813Z,98800
2018-02-10T14:13:12.193Z,98801
2018-02-10T14:15:39.659Z,98810
2018-02-10T14:18:07.077Z,98812
2018-02-10T14:20:34.457Z,98804
2018-02-10T14:23:01.889Z,98797
2018-02-10T14:25:29.285Z,98789
2018-02-10T14:27:56.809Z,98787
2018-02-10T14:30:24.320Z,98782
2018-02-10T14:32:51.705Z,98781
2018-02-10T14:35:19.105Z,98784
2018-02-10T14:37:46.500Z,98787
2018-02-10T14:40:13.944Z,98789
2018-02-10T14:42:41.324Z,98787
2018-02-10T14:45:08.703Z,98782
2018-02-10T14:47:36.131Z,98780
2018-02-10T14:50:03.514Z,98778
2018-02-10T14:52:30.894Z,98773
2018-02-10T14:54:58.286Z,98775
2018-02-10T14:57:25.683Z,98774
2018-02-10T14:59:53.166Z,98772
2018-02-10T15:02:20.633Z,98774
2018-02-10T15:04:48.041Z,98771
2018-02-10T15:07:15.458Z,98768
2018-02-10T15:09:42.849Z,98766
2018-02-10T15:12:10.241Z,98764
2018-02-10T15:14:37.658Z,98767
2018-02-10T15:17:05.049Z,98768
2018-02-10T15:19:32.428Z,98767
2018-02-10T15:21:59.850Z,98771
2018-02-10T15:24:27.290Z,98770
2018-02-10T15:26:54.715Z,98767
2018-02-10T15:29:22.150Z,98764
2018-02-10T15:32:01.532Z,98760
2018-02-10T15:34:40.665Z,98761
2018-02-10T15:37:08.049Z,98757
2018-02-10T15:39:35.429Z,98753
2018-02-10T15:42:02.825Z,98750
2018-02-10T15:44:30.234Z,98748
2018-02-10T15:46:58.550Z,98746
2018-02-10T15:49:26.023Z,98739
2018-02-10T15:51:53.413Z,98734
2018-02-10T15:54:20.839Z,98726
2018-02-10T15:56:48.226Z,98726
2018-02-10T15:59:15.605Z,98729
2018-02-10T16:01:44.385Z,98719
2018-02-10T16:04:11.935Z,98723
2018-02-10T16:06:39.402Z,98719
2018-02-10T16:09:06.874Z,98716
2018-02-10T16:11:34.281Z,98721
2018-02-10T16:14:01.673Z,98718
2018-02-10T16:16:29.214Z,98721
2018-02-10T16:18:56.653Z,98714
2018-02-10T16:21:24.998Z,98713
2018-02-10T16:23:52.395Z,98709
2018-02-10T16:26:19.808Z,98708
2018-02-10T16:28:47.253Z,98702
2018-02-10T16:31:14.643Z,98700
2018-02-10T16:33:42.038Z,98696
2018-02-10T16:36:09.481Z,98701
2018-02-10T16:38:36.857Z,98704
2018-02-10T16:41:04.253Z,98702
2018-02-10T16:43:31.673Z,98705
2018-02-10T16:45:59.783Z,98701
2018-02-10T16:48:27.165Z,98691
2018-02-10T16:50:54.582Z,98690
2018-02-10T16:53:22.013Z,98692
2018-02-10T16:55:49.393Z,98685
2018-02-10T16:58:16.779Z,98685
2018-02-10T17:00:44.195Z,98683
2018-02-10T17:03:11.578Z,98676
2018-02-10T17:05:38.994Z,98676
2018-02-10T17:08:06.426Z,98671
2018-02-10T17:10:33.814Z,98670
2018-02-10T17:13:01.251Z,98669
2018-02-10T17:15:28.638Z,98668
2018-02-10T17:17:56.023Z,98658
2018-02-10T17:20:23.401Z,98657
2018-02-10T17:22:50.839Z,98642
2018-02-10T17:25:18.247Z,98632
2018-02-10T17:27:45.680Z,98635
2018-02-10T17:30:13.065Z,98636
2018-02-10T17:32:40.441Z,98631
2018-02-10T17:35:07.865Z,98605
2018-02-10T17:37:35.246Z,98611
2018-02-10T17:40:02.633Z,98610
2018-02-10T17:42:30.030Z,98604
2018-02-10T17:44:57.419Z,98604
2018-02-10T17:47:24.849Z,98608
2018-02-10T17:49:52.234Z,98606
2018-02-10T17:52:19.634Z,98597
2018-02-10T17:54:47.053Z,98603
2018-02-10T17:57:14.430Z,98601
2018-02-10T17:59:41.821Z,98609
2018-02-10T18:02:09.230Z,98608
2018-02-10T18:04:36.629Z,98595
2018-02-10T18:07:04.275Z,98593
2018-02-10T18:09:31.709Z,98595
2018-02-10T18:11:59.086Z,98588
2018-02-10T18:14:26.633Z,98584
2018-02-10T18:16:54.057Z,98592
2018-02-10T18:19:21.441Z,98589
2018-02-10T18:21:48.825Z,98592
2018-02-10T18:24:16.249Z,98598
2018-02-10T18:26:43.643Z,98593
2018-02-10T18:29:11.024Z,98598
2018-02-10T18:31:38.450Z,98612
2018-02-10T18:34:05.835Z,98603
2018-02-10T18:36:33.223Z,98621
2018-02-10T18:39:00.609Z,98627
2018-02-10T18:41:28.617Z,98643
2018-02-10T18:43:56.039Z,98651
2018-02-10T18:46:23.457Z,98664
2018-02-10T18:48:50.845Z,98674
2018-02-10T18:51:18.353Z,98680
2018-02-10T18:53:45.743Z,98676
2018-02-10T18:56:13.130Z,98671
2018-02-10T18:58:40.520Z,98670
2018-02-10T19:01:07.914Z,98668
2018-02-10T19:03:35.348Z,98670
2018-02-10T19:06:02.736Z,98678
2018-02-10T19:08:30.113Z,98676
2018-02-10T19:10:57.514Z,98666
2018-02-10T19:13:24.942Z,98668
2018-02-10T19:15:52.323Z,98668
2018-02-10T19:18:19.724Z,98666
2018-02-10T19:20:47.114Z,98655
2018-02-10T19:23:14.489Z,98650
2018-02-10T19:25:41.953Z,98642
2018-02-10T19:28:09.336Z,98634
2018-02-10T19:30:36.777Z,98633
2018-02-10T19:33:04.173Z,98627
2018-02-10T19:35:31.781Z,98622
2018-02-10T19:37:59.241Z,98610
2018-02-10T19:40:26.621Z,98618
2018-02-10T19:42:54.001Z,98617
2018-02-10T19:45:21.426Z,98619
2018-02-10T19:47:48.831Z,98624
2018-02-10T19:50:16.209Z,98618
2018-02-10T19:52:43.645Z,98619
2018-02-10T19:55:11.029Z,98625
2018-02-10T19:57:38.411Z,98628
2018-02-10T20:00:05.829Z,98631
2018-02-10T20:02:33.214Z,98620
2018-02-10T20:05:00.618Z,98631
2018-02-10T20:07:28.757Z,98631
2018-02-10T20:09:56.138Z,98632
2018-02-10T20:12:23.525Z,98633
2018-02-10T20:14:50.953Z,98627
2018-02-10T20:17:18.329Z,98626
2018-02-10T20:19:45.709Z,98621
2018-02-10T20:22:13.097Z,98624
2018-02-10T20:24:40.501Z,98622
2018-02-10T20:27:07.882Z,98628
2018-02-10T20:29:35.302Z,98623
2018-02-10T20:32:02.697Z,98625
2018-02-10T20:34:30.168Z,98630
2018-02-10T20:36:57.573Z,98630
2018-02-10T20:39:24.958Z,98622
2018-02-10T20:41:52.341Z,98615
2018-02-10T20:44:19.730Z,98623
2018-02-10T20:46:47.110Z,98626
2018-02-10T20:49:14.537Z,98637
2018-02-10T20:51:41.930Z,98639
2018-02-10T20:54:09.313Z,98649
2018-02-10T20:56:36.746Z,98639
2018-02-10T20:59:04.161Z,98641
2018-02-10T21:01:31.625Z,98637
2018-02-10T21:03:59.038Z,98638
2018-02-10T21:06:26.421Z,98635
2018-02-10T21:08:53.809Z,98632
2018-02-10T21:11:21.241Z,98626
2018-02-10T21:13:48.865Z,98624
2018-02-10T21:16:16.253Z,98621
2018-02-10T21:18:43.685Z,98625
2018-02-10T21:21:11.086Z,98617
2018-02-10T21:23:38.473Z,98615
2018-02-10T21:26:05.864Z,98618
2018-02-10T21:28:34.213Z,98617
2018-02-10T21:31:01.657Z,98612
2018-02-10T21:33:29.039Z,98616
2018-02-10T21:35:56.433Z,98601
